Time;durP1;ratioP1;P1;durP2;ratioP2;P2;SDS_P1;SDS_P2;PMS_P1;PMS_P2;Temp;Humidity;BMP_temperature;BMP_pressure;BME280_temperature;BME280_humidity;BME280_pressure;Samples;Min_cycle;Max_cycle;Signal;HPM_P1;HPM_P2
2021/12/27 00:00:49;;;;;;;19.77;13.10;;;;;;;10.79;66.35;94227.47;4974234;28;20198;-75
2021/12/27 00:03:16;;;;;;;20.47;12.93;;;;;;;10.71;66.39;94199.28;4974436;28;20200;-76
2021/12/27 00:05:43;;;;;;;21.97;13.40;;;;;;;10.51;66.40;94172.28;4974217;28;20333;-78
2021/12/27 00:08:10;;;;;;;21.43;13.37;;;;;;;10.77;66.19;94219.13;4974490;28;20193;-76
2021/12/27 00:10:39;;;;;;;25.30;14.40;;;;;;;10.77;66.36;94223.44;4973972;28;20212;-77
2021/12/27 00:13:07;;;;;;;21.27;14.90;;;;;;;10.76;66.33;94214.97;4972449;28;20198;-76
2021/12/27 00:15:39;;;;;;;22.90;15.43;;;;;;;10.76;66.41;94220.09;4973459;28;20229;-77
2021/12/27 00:18:06;;;;;;;20.90;13.83;;;;;;;10.75;66.31;94215.09;4972901;28;20229;-77
2021/12/27 00:20:33;;;;;;;23.17;15.30;;;;;;;10.76;66.43;94203.94;4974145;28;20182;-77
2021/12/27 00:22:59;;;;;;;22.80;15.17;;;;;;;10.58;66.26;94157.13;4974062;28;20197;-77
2021/12/27 00:25:29;;;;;;;25.87;16.37;;;;;;;10.47;66.22;94145.44;4973936;28;20193;-77
2021/12/27 00:27:57;;;;;;;23.60;16.70;;;;;;;10.59;66.35;94176.66;4973669;28;20288;-77
2021/12/27 00:30:25;;;;;;;25.00;15.70;;;;;;;10.72;66.38;94200.88;4973916;28;20210;-78
2021/12/27 00:32:52;;;;;;;24.53;14.97;;;;;;;10.66;66.29;94196.34;4973800;28;20193;-76
2021/12/27 00:35:19;;;;;;;26.07;16.13;;;;;;;10.72;66.29;94205.19;4973988;28;20585;-75
2021/12/27 00:37:47;;;;;;;25.83;16.37;;;;;;;10.59;66.50;94177.47;4972131;28;20573;-74
2021/12/27 00:40:14;;;;;;;25.93;16.40;;;;;;;10.70;66.38;94200.22;4973663;28;20584;-78
2021/12/27 00:42:42;;;;;;;24.23;15.23;;;;;;;10.70;66.38;94214.75;4973636;28;20190;-77
2021/12/27 00:45:11;;;;;;;21.47;15.87;;;;;;;10.70;66.47;94214.75;4974048;28;20189;-75
2021/12/27 00:47:38;;;;;;;23.73;14.97;;;;;;;10.69;66.42;94205.47;4973532;28;20311;-77
2021/12/27 00:50:06;;;;;;;21.20;15.10;;;;;;;10.68;66.46;94222.59;4973459;28;20194;-75
2021/12/27 00:52:35;;;;;;;23.17;15.27;;;;;;;10.53;66.56;94175.50;4973532;28;20197;-76
2021/12/27 00:55:03;;;;;;;25.63;14.60;;;;;;;10.65;66.63;94204.97;4973513;28;20201;-77
2021/12/27 00:57:30;;;;;;;18.37;13.43;;;;;;;10.43;66.66;94196.03;4973138;28;20194;-78
2021/12/27 00:59:57;;;;;;;18.43;12.87;;;;;;;10.63;66.45;94239.34;4973641;28;20193;-77
2021/12/27 01:02:25;;;;;;;18.20;14.27;;;;;;;10.65;66.43;94207.53;4971857;28;20220;-77
2021/12/27 01:04:52;;;;;;;19.27;13.07;;;;;;;10.51;66.62;94180.75;4972779;28;20186;-76
2021/12/27 01:07:19;;;;;;;21.70;13.40;;;;;;;10.58;66.37;94216.78;4973423;28;20226;-77
2021/12/27 01:10:00;;;;;;;19.47;13.47;;;;;;;10.47;65.97;94182.00;4973402;28;20182;-78
2021/12/27 01:12:33;;;;;;;17.70;12.53;;;;;;;10.69;66.25;94205.47;4973119;28;20193;-76
2021/12/27 01:15:11;;;;;;;20.80;13.20;;;;;;;10.51;66.13;94155.19;4973189;28;20229;-77
2021/12/27 01:17:41;;;;;;;18.30;12.37;;;;;;;10.74;66.20;94213.50;4972824;28;20197;-76
2021/12/27 01:20:11;;;;;;;15.83;11.70;;;;;;;10.75;66.31;94200.59;4973368;28;20705;-78
2021/12/27 01:22:38;;;;;;;14.70;11.50;;;;;;;10.76;66.10;94206.50;4973069;28;20189;-77
2021/12/27 01:25:07;;;;;;;17.60;12.00;;;;;;;10.58;66.05;94180.97;4973188;28;20709;-77
2021/12/27 01:27:35;;;;;;;16.40;11.70;;;;;;;10.48;66.17;94159.81;4971206;28;20757;-77
2021/12/27 01:30:02;;;;;;;19.30;13.53;;;;;;;10.80;66.19;94192.47;4972633;28;20198;-76
2021/12/27 01:32:33;;;;;;;19.43;12.87;;;;;;;10.83;66.10;94186.22;4972811;28;20198;-77
2021/12/27 01:35:01;;;;;;;19.47;13.33;;;;;;;10.82;66.06;94197.41;4972948;28;20281;-77
2021/12/27 01:37:28;;;;;;;20.47;12.73;;;;;;;10.82;66.16;94200.78;4972344;28;20669;-76
2021/12/27 01:39:55;;;;;;;22.03;12.23;;;;;;;10.81;66.09;94181.25;4972903;28;20186;-78
2021/12/27 01:42:22;;;;;;;17.37;11.93;;;;;;;10.82;65.95;94203.31;4972552;28;20197;-78
2021/12/27 01:44:49;;;;;;;19.03;12.43;;;;;;;10.82;66.15;94187.19;4972602;28;20262;-78
2021/12/27 01:47:16;;;;;;;20.80;13.50;;;;;;;10.81;65.84;94191.50;4972700;28;20217;-76
2021/12/27 01:49:43;;;;;;;18.70;13.23;;;;;;;10.62;65.97;94159.28;4971987;28;20558;-78
2021/12/27 01:52:11;;;;;;;19.17;13.03;;;;;;;10.83;66.15;94202.38;4971336;28;20234;-77
2021/12/27 01:54:38;;;;;;;20.03;11.93;;;;;;;10.56;65.98;94106.16;4971506;28;20186;-76
2021/12/27 01:57:06;;;;;;;19.53;12.93;;;;;;;10.83;65.92;94161.44;4972649;28;20186;-76
2021/12/27 01:59:33;;;;;;;21.03;13.37;;;;;;;10.82;66.14;94197.41;4971452;28;20198;-76
2021/12/27 02:02:00;;;;;;;18.67;12.73;;;;;;;10.79;66.15;94160.97;4972366;28;20198;-77
2021/12/27 02:04:27;;;;;;;18.30;12.20;;;;;;;10.61;66.33;94149.97;4971951;28;20194;-77
2021/12/27 02:06:53;;;;;;;16.97;11.57;;;;;;;10.77;66.23;94193.53;4970733;28;20221;-77
2021/12/27 02:09:30;;;;;;;15.97;11.50;;;;;;;10.70;66.37;94161.84;4971049;28;20205;-78
2021/12/27 02:11:57;;;;;;;17.83;11.53;;;;;;;10.41;66.23;94116.16;4972535;28;20201;-78
2021/12/27 02:14:23;;;;;;;17.53;11.97;;;;;;;10.83;66.25;94161.44;4972702;28;20192;-78
2021/12/27 02:16:50;;;;;;;20.07;11.70;;;;;;;10.83;66.34;94155.53;4973447;28;20205;-76
2021/12/27 02:19:18;;;;;;;15.57;12.00;;;;;;;10.57;66.54;94138.44;4973188;28;20197;-76
2021/12/27 02:21:46;;;;;;;17.87;12.73;;;;;;;10.51;66.97;94108.38;4972286;28;20197;-77
2021/12/27 02:24:13;;;;;;;20.77;12.10;;;;;;;10.82;66.88;94151.38;4972606;28;20194;-77
2021/12/27 02:26:40;;;;;;;19.50;10.73;;;;;;;10.82;66.83;94148.81;4972049;28;20624;-78
2021/12/27 02:29:09;;;;;;;17.00;11.67;;;;;;;10.76;66.85;94166.38;4972043;28;20197;-74
2021/12/27 02:31:39;;;;;;;17.27;12.00;;;;;;;10.76;66.82;94135.69;4972048;28;20217;-76
2021/12/27 02:34:08;;;;;;;16.47;11.43;;;;;;;10.84;66.89;94150.28;4972190;28;20198;-77
2021/12/27 02:36:35;;;;;;;18.67;12.43;;;;;;;10.52;66.91;94105.66;4971764;28;20240;-78
2021/12/27 02:39:04;;;;;;;17.10;12.00;;;;;;;10.69;67.03;94132.13;4971832;28;20190;-78
2021/12/27 02:41:31;;;;;;;16.87;11.37;;;;;;;10.87;67.03;94146.59;4971707;28;20189;-78
2021/12/27 02:43:58;;;;;;;22.57;12.63;;;;;;;10.87;67.02;94149.94;4971393;28;20194;-77
2021/12/27 02:46:25;;;;;;;17.63;11.53;;;;;;;10.88;67.24;94154.13;4971519;28;20202;-79
2021/12/27 02:48:52;;;;;;;19.00;13.30;;;;;;;10.89;67.18;94157.50;4971173;28;20229;-76
2021/12/27 02:51:19;;;;;;;16.90;12.60;;;;;;;10.62;67.12;94097.09;4971043;28;20270;-76
2021/12/27 02:53:46;;;;;;;17.60;11.00;;;;;;;10.87;67.21;94142.28;4971404;28;20197;-78
2021/12/27 02:56:15;;;;;;;19.17;12.07;;;;;;;10.83;67.12;94124.84;4971464;28;20213;-77
2021/12/27 02:58:41;;;;;;;19.03;11.93;;;;;;;10.89;67.32;94150.63;4971536;28;20194;-77
2021/12/27 03:01:11;;;;;;;18.30;12.37;;;;;;;10.90;67.38;94153.97;4970967;28;20189;-76
2021/12/27 03:03:39;;;;;;;15.80;10.97;;;;;;;10.66;67.50;94111.97;4971127;28;20201;-77
2021/12/27 03:06:06;;;;;;;15.57;11.23;;;;;;;10.90;67.34;94141.19;4971319;28;20208;-76
2021/12/27 03:08:34;;;;;;;18.53;12.00;;;;;;;10.64;67.26;94107.97;4971388;28;20229;-79
2021/12/27 03:11:01;;;;;;;16.87;12.03;;;;;;;10.90;67.30;94129.19;4974808;28;20201;-76
2021/12/27 03:13:31;;;;;;;21.30;12.57;;;;;;;10.74;67.08;94117.13;4975472;28;20190;-76
2021/12/27 03:16:01;;;;;;;16.37;12.63;;;;;;;10.61;66.93;94092.94;4975441;28;20190;-75
2021/12/27 03:18:28;;;;;;;17.57;11.93;;;;;;;10.81;67.40;94122.44;4975206;28;20196;-76
2021/12/27 03:20:56;;;;;;;19.63;12.97;;;;;;;10.90;67.47;94146.31;4974828;28;20201;-75
2021/12/27 03:23:23;;;;;;;18.97;13.20;;;;;;;10.90;67.25;94129.19;4975213;28;20201;-75
2021/12/27 03:25:51;;;;;;;21.77;13.63;;;;;;;10.85;67.41;94128.06;4975359;28;20256;-76
2021/12/27 03:28:18;;;;;;;20.97;14.17;;;;;;;10.83;67.50;94124.84;4974822;28;20236;-76
2021/12/27 03:30:47;;;;;;;17.20;12.53;;;;;;;10.91;67.62;94138.47;4974947;28;20279;-75
2021/12/27 03:33:16;;;;;;;20.17;14.67;;;;;;;10.91;67.70;94127.44;4975197;28;20193;-75
2021/12/27 03:35:51;;;;;;;23.20;14.53;;;;;;;10.91;67.62;94124.88;4974909;28;20274;-78
2021/12/27 03:38:19;;;;;;;20.17;14.53;;;;;;;10.91;67.53;94135.91;4975011;28;20304;-75
2021/12/27 03:40:48;;;;;;;19.10;14.30;;;;;;;10.70;67.62;94087.69;4975296;28;20185;-76
2021/12/27 03:43:15;;;;;;;22.23;15.80;;;;;;;10.90;67.50;94103.63;4974374;28;20209;-75
2021/12/27 03:45:43;;;;;;;21.10;14.97;;;;;;;10.77;67.80;94086.13;4975108;28;20193;-75
2021/12/27 03:48:12;;;;;;;21.60;15.60;;;;;;;10.77;67.48;94082.78;4974344;28;20217;-75
2021/12/27 03:50:40;;;;;;;24.27;15.57;;;;;;;10.65;67.65;94072.00;4974781;28;20316;-75
2021/12/27 03:53:08;;;;;;;21.83;15.20;;;;;;;10.46;67.52;94044.13;4974354;28;20198;-76
2021/12/27 03:55:35;;;;;;;22.00;15.53;;;;;;;10.92;67.66;94111.13;4974940;28;20197;-76
2021/12/27 03:58:08;;;;;;;18.70;14.47;;;;;;;10.91;67.60;94115.44;4974051;28;20186;-76
2021/12/27 04:00:47;;;;;;;20.70;14.80;;;;;;;10.91;67.65;94100.09;4974657;28;20275;-76
2021/12/27 04:03:17;;;;;;;23.47;14.87;;;;;;;10.77;67.47;94085.34;4974271;28;20729;-77
2021/12/27 04:05:44;;;;;;;18.27;14.37;;;;;;;10.89;67.47;94119.13;4974438;28;20680;-77
2021/12/27 04:08:11;;;;;;;21.87;15.13;;;;;;;10.82;67.67;94105.34;4974157;28;20236;-77
2021/12/27 04:10:39;;;;;;;23.23;18.23;;;;;;;10.70;67.78;94087.69;4974421;28;20204;-77
2021/12/27 04:13:07;;;;;;;21.73;15.10;;;;;;;10.87;67.64;94126.94;4974428;28;20260;-76
2021/12/27 04:15:34;;;;;;;23.60;16.30;;;;;;;10.86;67.61;94127.09;4974603;28;20212;-75
2021/12/27 04:18:02;;;;;;;27.40;15.63;;;;;;;10.87;67.58;94128.69;4974143;28;20182;-76
2021/12/27 04:20:30;;;;;;;20.43;14.70;;;;;;;10.78;67.60;94110.75;4974523;28;20196;-76
2021/12/27 04:22:57;;;;;;;23.37;16.73;;;;;;;10.73;67.68;94112.97;4973183;28;20205;-77
2021/12/27 04:25:24;;;;;;;23.67;16.47;;;;;;;10.79;67.65;94112.38;4974442;28;20193;-77
2021/12/27 04:27:51;;;;;;;20.60;15.70;;;;;;;10.68;67.71;94088.81;4974289;28;20710;-76
2021/12/27 04:30:20;;;;;;;20.50;15.60;;;;;;;10.87;67.61;94131.25;4973910;28;20617;-76
2021/12/27 04:32:49;;;;;;;18.53;14.53;;;;;;;10.88;67.64;94127.72;4974238;28;20193;-77
2021/12/27 04:35:16;;;;;;;21.37;14.63;;;;;;;10.87;67.59;94126.94;4973894;28;20235;-76
2021/12/27 04:37:44;;;;;;;18.40;14.27;;;;;;;10.87;67.46;94118.47;4973867;28;20190;-76
2021/12/27 04:40:14;;;;;;;19.80;14.10;;;;;;;10.60;67.78;94078.53;4973568;28;20186;-75
2021/12/27 04:42:44;;;;;;;19.50;14.13;;;;;;;10.87;67.66;94129.50;4973916;28;20268;-75
2021/12/27 04:45:14;;;;;;;22.10;14.03;;;;;;;10.62;67.81;94086.84;4973563;28;20194;-75
2021/12/27 04:47:42;;;;;;;19.80;13.77;;;;;;;10.88;67.82;94132.84;4973702;28;20229;-76
2021/12/27 04:50:10;;;;;;;19.90;14.03;;;;;;;10.54;67.67;94074.84;4972806;28;20236;-76
2021/12/27 04:52:36;;;;;;;18.30;12.20;;;;;;;10.87;67.84;94129.50;4973596;28;20224;-76
2021/12/27 04:55:05;;;;;;;17.87;13.27;;;;;;;10.87;67.92;94129.50;4973460;28;20244;-75
2021/12/27 04:57:32;;;;;;;21.20;12.67;;;;;;;10.66;67.87;94101.72;4973680;28;20193;-76
2021/12/27 04:59:59;;;;;;;17.00;13.40;;;;;;;10.86;67.74;94140.69;4973612;28;20190;-77
2021/12/27 05:02:26;;;;;;;16.93;12.20;;;;;;;10.85;67.70;94117.81;4973641;28;20186;-76
2021/12/27 05:04:53;;;;;;;19.90;12.67;;;;;;;10.85;67.74;94133.16;4973073;28;20692;-76
2021/12/27 05:07:20;;;;;;;17.97;12.70;;;;;;;10.86;67.76;94129.66;4973030;28;20236;-77
2021/12/27 05:09:50;;;;;;;17.70;12.87;;;;;;;10.77;67.80;94123.69;4973248;28;20257;-77
2021/12/27 05:12:18;;;;;;;17.73;12.57;;;;;;;10.85;67.90;94136.53;4973067;28;20677;-77
2021/12/27 05:14:45;;;;;;;16.73;13.00;;;;;;;10.85;67.94;94131.41;4973303;28;20197;-77
2021/12/27 05:17:12;;;;;;;16.03;12.40;;;;;;;10.84;67.85;94137.50;4973217;28;20197;-75
2021/12/27 05:19:39;;;;;;;18.50;13.10;;;;;;;10.85;67.92;94125.50;4972960;28;20216;-77
2021/12/27 05:22:05;;;;;;;16.73;12.80;;;;;;;10.36;67.70;94051.09;4972201;28;20201;-75
2021/12/27 05:24:32;;;;;;;15.57;12.40;;;;;;;10.86;67.90;94145.78;4972934;28;20642;-76
2021/12/27 05:26:59;;;;;;;16.80;12.47;;;;;;;10.87;67.72;94139.72;4973069;28;20198;-76
2021/12/27 05:29:27;;;;;;;17.03;12.53;;;;;;;10.79;67.97;94114.09;4973101;28;20229;-76
2021/12/27 05:31:57;;;;;;;16.50;12.23;;;;;;;10.87;67.86;94144.03;4972653;28;20662;-77
2021/12/27 05:34:24;;;;;;;15.20;12.00;;;;;;;10.87;67.78;94123.56;4972171;28;20240;-76
2021/12/27 05:36:51;;;;;;;16.30;11.57;;;;;;;10.87;67.88;94134.59;4972296;28;20205;-75
2021/12/27 05:39:19;;;;;;;16.47;12.13;;;;;;;10.87;67.70;94132.03;4973005;28;20217;-76
2021/12/27 05:41:46;;;;;;;18.03;13.20;;;;;;;10.88;67.97;94148.19;4972807;28;20182;-77
2021/12/27 05:44:13;;;;;;;17.07;12.40;;;;;;;10.88;67.68;94135.41;4972899;28;20213;-76
2021/12/27 05:46:42;;;;;;;16.87;12.63;;;;;;;10.83;67.99;94132.50;4972681;28;20194;-76
2021/12/27 05:49:09;;;;;;;21.13;12.67;;;;;;;10.68;67.88;94104.16;4972344;28;20225;-76
2021/12/27 05:51:37;;;;;;;19.27;13.33;;;;;;;10.85;67.90;94126.28;4972178;28;20229;-76
2021/12/27 05:54:04;;;;;;;21.10;13.13;;;;;;;10.86;67.94;94134.78;4972431;28;20221;-78
2021/12/27 05:56:31;;;;;;;18.17;13.40;;;;;;;10.72;67.98;94105.47;4972787;28;20213;-77
2021/12/27 05:58:58;;;;;;;18.47;12.80;;;;;;;10.85;67.85;94135.72;4972250;28;20221;-78
2021/12/27 06:01:24;;;;;;;16.60;12.20;;;;;;;10.84;67.80;94122.13;4972752;28;20197;-77
2021/12/27 06:03:55;;;;;;;17.63;12.87;;;;;;;10.83;67.85;94133.31;4972140;28;20197;-75
2021/12/27 06:06:21;;;;;;;18.57;13.57;;;;;;;10.85;68.10;94133.97;4972577;28;20201;-77
2021/12/27 06:08:48;;;;;;;20.13;12.63;;;;;;;10.86;67.90;94129.66;4972364;28;20233;-76
2021/12/27 06:11:15;;;;;;;17.80;13.00;;;;;;;10.86;67.95;94142.44;4973031;28;20190;-77
2021/12/27 06:13:43;;;;;;;19.60;13.07;;;;;;;10.82;67.96;94121.47;4972666;28;20208;-76
2021/12/27 06:16:11;;;;;;;18.23;12.53;;;;;;;10.87;67.92;94128.69;4972238;28;20194;-78
2021/12/27 06:18:38;;;;;;;19.00;13.33;;;;;;;10.87;67.83;94123.56;4972174;28;20197;-76
2021/12/27 06:21:06;;;;;;;17.70;11.93;;;;;;;10.88;67.95;94120.06;4971971;28;20201;-77
2021/12/27 06:23:33;;;;;;;22.57;12.87;;;;;;;10.74;67.98;94113.75;4972259;28;20189;-77
2021/12/27 06:26:00;;;;;;;17.30;12.83;;;;;;;10.89;68.05;94158.28;4971966;28;20645;-77
2021/12/27 06:28:27;;;;;;;17.93;11.73;;;;;;;10.63;67.91;94101.25;4971630;28;20213;-77
2021/12/27 06:30:54;;;;;;;15.93;12.17;;;;;;;10.92;68.03;94131.59;4972157;28;20205;-78
2021/12/27 06:33:21;;;;;;;17.63;12.57;;;;;;;10.92;67.91;94113.69;4971766;28;20197;-78
2021/12/27 06:35:48;;;;;;;16.83;11.93;;;;;;;10.94;67.98;94107.47;4971588;28;20681;-77
2021/12/27 06:38:16;;;;;;;20.20;13.43;;;;;;;10.98;67.61;94108.75;4971871;28;20551;-76
2021/12/27 06:40:43;;;;;;;15.87;11.83;;;;;;;11.04;67.74;94109.88;4971799;28;20192;-78
2021/12/27 06:43:10;;;;;;;15.87;12.50;;;;;;;11.09;67.75;94105.09;4971521;28;20685;-76
2021/12/27 06:45:38;;;;;;;18.50;12.17;;;;;;;11.07;67.51;94088.31;4971094;28;20665;-77
2021/12/27 06:48:05;;;;;;;18.63;12.53;;;;;;;11.15;67.38;94091.72;4971235;28;20217;-78
2021/12/27 06:50:32;;;;;;;17.33;11.70;;;;;;;11.21;67.35;94090.28;4971509;28;20232;-78
2021/12/27 06:52:59;;;;;;;15.47;10.80;;;;;;;11.27;67.27;94105.03;4971391;28;20202;-78
2021/12/27 06:55:27;;;;;;;15.67;12.17;;;;;;;11.11;67.02;94087.06;4971240;28;20192;-77
2021/12/27 06:57:54;;;;;;;17.90;10.70;;;;;;;11.07;66.93;94067.84;4971621;28;20198;-78
2021/12/27 07:00:21;;;;;;;17.77;11.73;;;;;;;11.34;66.65;94077.03;4971233;28;20208;-76
2021/12/27 07:02:48;;;;;;;16.37;11.67;;;;;;;11.36;66.74;94060.56;4971290;28;20209;-76
2021/12/27 07:05:15;;;;;;;17.57;11.83;;;;;;;11.46;66.67;94084.25;4971243;28;20189;-76
2021/12/27 07:07:42;;;;;;;17.77;11.70;;;;;;;11.56;66.58;94102.00;4971189;28;20194;-77
2021/12/27 07:10:12;;;;;;;13.77;10.23;;;;;;;11.61;66.61;94120.25;4971413;28;20615;-75
2021/12/27 07:12:41;;;;;;;17.10;10.53;;;;;;;11.56;66.75;94091.78;4971707;28;20205;-78
2021/12/27 07:15:08;;;;;;;13.13;10.03;;;;;;;11.67;66.15;94065.88;4971217;28;20674;-77
2021/12/27 07:17:35;;;;;;;13.70;10.27;;;;;;;11.69;66.09;94104.91;4970816;28;20677;-77
2021/12/27 07:20:02;;;;;;;14.37;8.10;;;;;;;11.72;66.40;94099.47;4971344;28;20198;-76
2021/12/27 07:22:29;;;;;;;13.43;8.80;;;;;;;11.59;65.97;94058.19;4970798;28;20194;-75
2021/12/27 07:24:55;;;;;;;11.33;7.90;;;;;;;11.78;65.96;94101.38;4971775;28;20197;-76
2021/12/27 07:27:22;;;;;;;10.30;7.50;;;;;;;11.83;66.02;94118.91;4970875;28;20204;-76
2021/12/27 07:29:50;;;;;;;13.53;7.43;;;;;;;11.87;65.81;94109.91;4970906;28;20236;-76
2021/12/27 07:32:18;;;;;;;11.37;7.77;;;;;;;11.79;65.83;94092.75;4971014;28;20197;-77
2021/12/27 07:34:46;;;;;;;11.37;7.70;;;;;;;11.91;65.80;94113.75;4971124;28;20204;-75
2021/12/27 07:37:15;;;;;;;8.83;7.10;;;;;;;12.02;65.34;94094.72;4971094;28;20201;-77
2021/12/27 07:39:42;;;;;;;9.37;7.73;;;;;;;12.06;65.27;94103.69;4971247;28;20576;-76
2021/12/27 07:42:09;;;;;;;9.93;7.50;;;;;;;12.10;65.31;94124.66;4970986;28;20680;-76
2021/12/27 07:44:36;;;;;;;10.83;8.27;;;;;;;11.83;65.35;94033.53;4971487;28;20193;-78
2021/12/27 07:47:05;;;;;;;9.43;7.37;;;;;;;12.13;65.30;94086.69;4971349;28;20189;-78
2021/12/27 07:49:32;;;;;;;8.53;6.87;;;;;;;12.03;65.10;94086.06;4971308;28;20213;-76
2021/12/27 07:51:59;;;;;;;9.63;7.70;;;;;;;12.07;65.17;94076.28;4971042;28;20229;-76
2021/12/27 07:54:26;;;;;;;9.33;7.10;;;;;;;11.99;65.23;94069.41;4970761;28;20198;-77
2021/12/27 07:56:52;;;;;;;9.20;7.20;;;;;;;12.15;65.14;94092.47;4972254;28;20201;-76
2021/12/27 07:59:19;;;;;;;8.80;6.77;;;;;;;12.17;65.37;94107.66;4974243;28;20197;-77
2021/12/27 08:01:46;;;;;;;9.20;7.43;;;;;;;12.04;65.11;94082.53;4973754;28;20194;-76
2021/12/27 08:04:14;;;;;;;12.97;7.67;;;;;;;12.19;65.03;94087.81;4974483;28;20217;-78
2021/12/27 08:06:41;;;;;;;10.70;7.87;;;;;;;12.20;65.13;94090.19;4974640;28;20196;-79
2021/12/27 08:09:08;;;;;;;9.40;7.80;;;;;;;12.22;64.97;94102.88;4974005;28;20604;-77
2021/12/27 08:11:35;;;;;;;10.93;7.93;;;;;;;12.24;65.17;94059.91;4974479;28;20193;-77
2021/12/27 08:14:02;;;;;;;13.00;8.37;;;;;;;12.24;65.16;94080.44;4974111;28;20241;-77
2021/12/27 08:16:29;;;;;;;8.50;7.60;;;;;;;12.27;65.17;94080.91;4973859;28;20201;-78
2021/12/27 08:18:56;;;;;;;10.80;7.87;;;;;;;12.30;65.00;94105.41;4973864;28;20198;-78
2021/12/27 08:21:26;;;;;;;10.37;7.83;;;;;;;12.35;65.00;94051.06;4977572;28;20193;-80
2021/12/27 08:23:54;;;;;;;12.13;8.27;;;;;;;12.40;64.90;94095.00;4992418;28;20201;-77
2021/12/27 08:26:21;;;;;;;11.27;8.23;;;;;;;12.29;64.66;94061.03;4993311;28;20186;-80
2021/12/27 08:28:53;;;;;;;14.73;6.13;;;;;;;12.62;84.04;94053.25;4993415;28;20708;-80
2021/12/27 08:31:31;;;;;;;15.07;4.30;;;;;;;13.23;100.00;94081.72;4993418;28;20197;-87
2021/12/27 08:33:58;;;;;;;13.93;5.17;;;;;;;14.10;100.00;94078.88;4991971;28;20204;-84
2021/12/27 08:36:26;;;;;;;8.73;4.97;;;;;;;14.81;99.84;94080.13;4993731;28;20189;-85
2021/12/27 08:38:53;;;;;;;10.67;5.80;;;;;;;15.55;94.55;94077.41;4993118;28;20197;-80
2021/12/27 08:41:27;;;;;;;8.57;6.27;;;;;;;16.00;90.72;94062.56;4992871;28;20204;-79
2021/12/27 08:43:54;;;;;;;11.17;6.17;;;;;;;16.16;85.96;94015.06;4993640;28;20185;-78
2021/12/27 08:46:21;;;;;;;10.53;5.50;;;;;;;16.61;84.46;94049.06;4993335;28;20201;-77
2021/12/27 08:48:48;;;;;;;8.37;5.47;;;;;;;16.95;80.42;94027.59;4993599;28;20287;-74
2021/12/27 08:51:17;;;;;;;10.63;6.80;;;;;;;17.61;77.69;94070.94;4993105;28;20228;-78
2021/12/27 08:53:45;;;;;;;12.30;8.23;;;;;;;17.75;75.60;94081.16;4993525;28;20212;-81
2021/12/27 08:56:12;;;;;;;11.83;8.10;;;;;;;17.51;72.63;94055.81;4993486;28;20185;-78
2021/12/27 08:58:42;;;;;;;12.77;8.83;;;;;;;17.54;70.05;94038.13;4993882;28;21035;-78
2021/12/27 09:01:09;;;;;;;13.97;8.60;;;;;;;16.96;68.57;93980.13;4992890;28;20197;-75
2021/12/27 09:03:35;;;;;;;15.70;8.40;;;;;;;17.21;66.93;94043.19;4977541;28;20674;-73
2021/12/27 09:06:03;;;;;;;10.87;7.53;;;;;;;16.88;65.42;94025.00;4970842;28;20205;-74
2021/12/27 09:08:30;;;;;;;8.93;6.90;;;;;;;16.81;64.53;94029.34;4970400;28;20194;-76
2021/12/27 09:11:01;;;;;;;13.07;7.80;;;;;;;16.72;63.62;94017.56;4970323;28;20194;-78
2021/12/27 09:13:29;;;;;;;15.03;7.97;;;;;;;16.76;63.25;94045.41;4970797;28;20197;-75
2021/12/27 09:16:00;;;;;;;9.67;8.13;;;;;;;16.64;62.71;94025.47;4970633;28;20201;-78
2021/12/27 09:18:27;;;;;;;12.23;8.43;;;;;;;16.52;62.27;94033.72;4970757;28;20201;-80
2021/12/27 09:20:54;;;;;;;9.73;8.20;;;;;;;16.36;62.00;94015.97;4970337;28;20666;-78
2021/12/27 09:23:21;;;;;;;11.87;8.87;;;;;;;16.30;61.52;94002.03;4970390;28;20189;-76
2021/12/27 09:25:48;;;;;;;13.17;10.10;;;;;;;16.11;61.50;94030.31;4970772;28;20236;-77
2021/12/27 09:28:16;;;;;;;11.63;8.33;;;;;;;16.11;61.19;94010.47;4969921;28;20658;-78
2021/12/27 09:30:44;;;;;;;10.50;8.97;;;;;;;16.01;60.89;93994.50;4970228;28;20315;-79
2021/12/27 09:33:11;;;;;;;11.43;8.73;;;;;;;15.94;60.97;94006.56;4969848;28;20202;-79
2021/12/27 09:35:38;;;;;;;11.03;8.37;;;;;;;15.87;60.65;93993.63;4970019;28;20194;-77
2021/12/27 09:38:05;;;;;;;11.17;8.67;;;;;;;15.82;60.66;93990.00;4969841;28;20253;-77
2021/12/27 09:40:32;;;;;;;10.97;8.57;;;;;;;15.74;60.57;93976.28;4969965;28;20201;-77
2021/12/27 09:42:59;;;;;;;9.83;8.47;;;;;;;15.69;60.70;93970.88;4979204;28;20201;-78
2021/12/27 09:45:28;;;;;;;11.20;8.57;;;;;;;15.67;60.49;94000.38;4991574;28;20189;-79
2021/12/27 09:47:55;;;;;;;11.83;8.73;;;;;;;15.54;60.42;93939.19;4991947;28;20200;-79
2021/12/27 09:50:25;;;;;;;9.70;8.70;;;;;;;15.62;60.43;93975.16;4992048;28;20239;-79
2021/12/27 09:52:52;;;;;;;10.33;8.23;;;;;;;15.62;60.34;93971.78;4991938;28;20194;-80
2021/12/27 09:55:19;;;;;;;10.00;8.23;;;;;;;15.62;60.28;93959.69;4993475;28;20197;-75
2021/12/27 09:57:47;;;;;;;14.50;8.97;;;;;;;15.57;60.28;93964.59;4992180;28;20193;-82
2021/12/27 10:00:18;;;;;;;9.87;8.43;;;;;;;15.62;60.37;93975.16;4992140;28;20201;-77
2021/12/27 10:02:51;;;;;;;12.63;9.37;;;;;;;15.30;60.40;93907.72;4992082;28;20197;-76
2021/12/27 10:05:20;;;;;;;11.40;8.63;;;;;;;15.36;60.23;93920.81;4987927;28;20850;-77
2021/12/27 10:07:47;;;;;;;11.07;9.50;;;;;;;15.47;60.27;93943.53;4951906;29;20191;-81
2021/12/27 10:10:14;;;;;;;10.83;8.93;;;;;;;15.63;60.14;93973.34;4953238;29;20221;-80
2021/12/27 10:12:41;;;;;;;13.97;9.57;;;;;;;15.62;60.07;93958.88;4953346;29;20198;-83
2021/12/27 10:15:11;;;;;;;10.53;9.07;;;;;;;15.60;60.16;93961.66;4953499;29;20194;-77
2021/12/27 10:17:41;;;;;;;12.90;8.50;;;;;;;14.66;59.89;93814.25;4952992;29;20187;-77
2021/12/27 10:20:15;;;;;;;11.07;9.13;;;;;;;15.55;59.92;93982.03;4952258;28;20281;-76
2021/12/27 10:22:44;;;;;;;13.27;9.33;;;;;;;15.46;59.96;93945.31;4951671;29;20643;-77
2021/12/27 10:25:14;;;;;;;13.63;9.50;;;;;;;15.57;60.05;93962.81;4952682;29;20312;-76
2021/12/27 10:27:43;;;;;;;13.03;8.70;;;;;;;15.43;59.80;93904.44;4952487;29;20226;-77
2021/12/27 10:30:16;;;;;;;13.03;8.77;;;;;;;15.54;60.01;93954.66;4952473;29;20222;-81
2021/12/27 10:32:46;;;;;;;11.80;8.03;;;;;;;15.25;59.80;93919.56;4951014;29;20195;-81
2021/12/27 10:35:14;;;;;;;14.87;9.30;;;;;;;14.64;60.18;93816.22;4953030;29;20871;-80
2021/12/27 10:37:43;;;;;;;12.63;8.83;;;;;;;15.37;60.12;93923.22;4951208;29;20202;-81
2021/12/27 10:40:12;;;;;;;12.43;8.90;;;;;;;14.98;60.19;93862.69;4951848;29;20210;-80
2021/12/27 10:42:43;;;;;;;13.90;9.20;;;;;;;15.50;60.18;93956.84;4952389;29;20245;-79
2021/12/27 10:45:12;;;;;;;13.83;8.73;;;;;;;15.51;60.17;93924.91;4952264;29;20201;-80
2021/12/27 10:47:42;;;;;;;11.70;8.77;;;;;;;15.54;60.05;93903.13;4952554;29;20194;-79
2021/12/27 10:50:16;;;;;;;14.57;9.30;;;;;;;15.62;59.93;93943.41;4951767;29;20713;-81
2021/12/27 10:52:56;;;;;;;9.57;7.83;;;;;;;15.68;59.88;93917.75;4952328;29;20194;-77
2021/12/27 10:55:26;;;;;;;13.37;7.27;;;;;;;15.17;59.25;93817.47;4951377;29;20253;-78
2021/12/27 10:58:08;;;;;;;9.53;6.97;;;;;;;15.78;58.81;93915.63;4950453;29;20555;-80
2021/12/27 11:00:36;;;;;;;10.37;6.73;;;;;;;15.71;58.91;93904.47;4952104;29;20217;-80
2021/12/27 11:03:03;;;;;;;11.20;6.47;;;;;;;15.95;58.80;93913.53;4951594;29;20201;-77
2021/12/27 11:05:34;;;;;;;8.40;6.23;;;;;;;16.01;58.27;93891.34;4951981;29;20202;-77
2021/12/27 11:08:05;;;;;;;10.97;6.20;;;;;;;16.11;57.83;93915.03;4951417;29;20191;-77
2021/12/27 11:10:34;;;;;;;9.37;6.17;;;;;;;16.19;57.83;93903.72;4951578;29;20229;-77
2021/12/27 11:13:02;;;;;;;10.60;6.37;;;;;;;16.20;57.74;93921.63;4952014;29;20197;-76
2021/12/27 11:15:30;;;;;;;12.40;6.10;;;;;;;16.26;58.04;93909.72;4951884;29;20206;-76
2021/12/27 11:17:57;;;;;;;8.23;5.80;;;;;;;16.29;57.90;93912.72;4951820;29;20557;-77
2021/12/27 11:20:25;;;;;;;9.57;6.13;;;;;;;16.34;57.88;93919.91;4951394;29;20210;-76
2021/12/27 11:22:58;;;;;;;8.80;5.57;;;;;;;16.34;57.61;93912.16;4950855;29;20221;-77
2021/12/27 11:25:29;;;;;;;5.83;5.13;;;;;;;16.35;57.74;93881.97;4951654;29;20225;-75